sensor_id;sensor_type;location;lat;lon;timestamp;temperature;humidity
53752;DHT22;41095;53.090;6.692;2023-04-25T00:00:26;7.70;99.90
53752;DHT22;41095;53.090;6.692;2023-04-25T00:02:51;7.80;99.90
53752;DHT22;41095;53.090;6.692;2023-04-25T00:05:17;7.80;99.90
53752;DHT22;41095;53.090;6.692;2023-04-25T00:07:43;7.80;99.90
53752;DHT22;41095;53.090;6.692;2023-04-25T00:10:09;7.80;99.90
53752;DHT22;41095;53.090;6.692;2023-04-25T00:12:36;7.80;99.90
53752;DHT22;41095;53.090;6.692;2023-04-25T00:15:03;7.80;99.90
53752;DHT22;41095;53.090;6.692;2023-04-25T00:17:29;7.80;99.90
53752;DHT22;41095;53.090;6.692;2023-04-25T00:19:55;7.70;99.90
53752;DHT22;41095;53.090;6.692;2023-04-25T00:22:21;7.80;99.90
53752;DHT22;41095;53.090;6.692;2023-04-25T00:24:47;8.90;99.90
53752;DHT22;41095;53.090;6.692;2023-04-25T00:27:13;7.80;99.90
53752;DHT22;41095;53.090;6.692;2023-04-25T00:29:38;7.70;99.90
53752;DHT22;41095;53.090;6.692;2023-04-25T00:32:04;7.80;99.90
53752;DHT22;41095;53.090;6.692;2023-04-25T00:34:30;7.80;99.90
53752;DHT22;41095;53.090;6.692;2023-04-25T00:36:55;7.70;99.90
53752;DHT22;41095;53.090;6.692;2023-04-25T00:39:22;7.80;99.90
53752;DHT22;41095;53.090;6.692;2023-04-25T00:41:48;7.70;99.90
53752;DHT22;41095;53.090;6.692;2023-04-25T00:44:14;7.70;99.90
53752;DHT22;41095;53.090;6.692;2023-04-25T00:46:42;7.80;99.90
53752;DHT22;41095;53.090;6.692;2023-04-25T00:49:08;7.70;99.90
53752;DHT22;41095;53.090;6.692;2023-04-25T00:51:34;7.70;99.90
53752;DHT22;41095;53.090;6.692;2023-04-25T00:54:00;7.70;99.90
53752;DHT22;41095;53.090;6.692;2023-04-25T00:56:26;7.70;99.90
53752;DHT22;41095;53.090;6.692;2023-04-25T00:58:53;7.70;99.90
53752;DHT22;41095;53.090;6.692;2023-04-25T01:01:22;7.60;99.90
53752;DHT22;41095;53.090;6.692;2023-04-25T01:03:49;7.80;99.90
53752;DHT22;41095;53.090;6.692;2023-04-25T01:06:17;7.60;99.90
53752;DHT22;41095;53.090;6.692;2023-04-25T01:08:42;7.60;99.90
53752;DHT22;41095;53.090;6.692;2023-04-25T01:11:08;7.60;99.90
53752;DHT22;41095;53.090;6.692;2023-04-25T01:13:35;7.60;99.90
53752;DHT22;41095;53.090;6.692;2023-04-25T01:16:02;7.60;99.90
53752;DHT22;41095;53.090;6.692;2023-04-25T01:18:28;7.60;99.90
53752;DHT22;41095;53.090;6.692;2023-04-25T01:20:54;7.60;99.90
53752;DHT22;41095;53.090;6.692;2023-04-25T01:23:21;7.60;99.90
53752;DHT22;41095;53.090;6.692;2023-04-25T01:25:48;7.60;99.90
53752;DHT22;41095;53.090;6.692;2023-04-25T01:28:14;7.60;99.90
53752;DHT22;41095;53.090;6.692;2023-04-25T01:30:41;7.60;99.90
53752;DHT22;41095;53.090;6.692;2023-04-25T01:33:08;7.50;99.90
53752;DHT22;41095;53.090;6.692;2023-04-25T01:35:34;7.50;99.90
53752;DHT22;41095;53.090;6.692;2023-04-25T01:38:00;7.50;99.90
53752;DHT22;41095;53.090;6.692;2023-04-25T01:40:26;7.40;99.90
53752;DHT22;41095;53.090;6.692;2023-04-25T01:42:52;7.40;99.90
53752;DHT22;41095;53.090;6.692;2023-04-25T01:45:18;7.40;99.90
53752;DHT22;41095;53.090;6.692;2023-04-25T01:47:44;6.80;99.90
53752;DHT22;41095;53.090;6.692;2023-04-25T01:50:15;7.40;99.90
53752;DHT22;41095;53.090;6.692;2023-04-25T01:52:41;7.40;99.90
53752;DHT22;41095;53.090;6.692;2023-04-25T01:55:07;7.40;99.90
53752;DHT22;41095;53.090;6.692;2023-04-25T01:57:33;7.40;99.90
53752;DHT22;41095;53.090;6.692;2023-04-25T02:00:01;7.40;99.90
53752;DHT22;41095;53.090;6.692;2023-04-25T02:02:28;7.50;99.90
53752;DHT22;41095;53.090;6.692;2023-04-25T02:04:54;7.40;99.90
53752;DHT22;41095;53.090;6.692;2023-04-25T02:07:20;7.40;99.90
53752;DHT22;41095;53.090;6.692;2023-04-25T02:09:46;7.40;99.90
53752;DHT22;41095;53.090;6.692;2023-04-25T02:12:12;7.40;99.90
53752;DHT22;41095;53.090;6.692;2023-04-25T02:14:38;7.40;99.90
53752;DHT22;41095;53.090;6.692;2023-04-25T02:17:04;7.40;99.90
53752;DHT22;41095;53.090;6.692;2023-04-25T02:19:31;7.40;99.90
53752;DHT22;41095;53.090;6.692;2023-04-25T02:21:56;7.40;99.90
53752;DHT22;41095;53.090;6.692;2023-04-25T02:24:22;7.40;99.90
53752;DHT22;41095;53.090;6.692;2023-04-25T02:26:48;7.40;99.90
53752;DHT22;41095;53.090;6.692;2023-04-25T02:29:15;7.30;99.90
53752;DHT22;41095;53.090;6.692;2023-04-25T02:31:41;7.40;99.90
53752;DHT22;41095;53.090;6.692;2023-04-25T02:34:07;7.30;99.90
53752;DHT22;41095;53.090;6.692;2023-04-25T02:36:33;7.20;99.90
53752;DHT22;41095;53.090;6.692;2023-04-25T02:39:01;7.30;99.90
53752;DHT22;41095;53.090;6.692;2023-04-25T02:41:27;7.30;99.90
53752;DHT22;41095;53.090;6.692;2023-04-25T02:43:52;7.20;99.90
53752;DHT22;41095;53.090;6.692;2023-04-25T02:46:18;7.20;99.90
53752;DHT22;41095;53.090;6.692;2023-04-25T02:48:44;7.20;99.90
53752;DHT22;41095;53.090;6.692;2023-04-25T02:51:09;7.20;99.90
53752;DHT22;41095;53.090;6.692;2023-04-25T02:53:35;7.10;99.90
53752;DHT22;41095;53.090;6.692;2023-04-25T02:56:01;7.20;99.90
53752;DHT22;41095;53.090;6.692;2023-04-25T02:58:27;7.10;99.90
53752;DHT22;41095;53.090;6.692;2023-04-25T03:00:53;7.10;99.90
53752;DHT22;41095;53.090;6.692;2023-04-25T03:03:20;7.10;99.90
53752;DHT22;41095;53.090;6.692;2023-04-25T03:05:51;7.10;99.90
53752;DHT22;41095;53.090;6.692;2023-04-25T03:08:17;7.10;99.90
53752;DHT22;41095;53.090;6.692;2023-04-25T03:10:44;7.10;99.90
53752;DHT22;41095;53.090;6.692;2023-04-25T03:13:10;7.10;99.90
53752;DHT22;41095;53.090;6.692;2023-04-25T03:15:36;7.10;99.90
53752;DHT22;41095;53.090;6.692;2023-04-25T03:18:02;7.00;99.90
53752;DHT22;41095;53.090;6.692;2023-04-25T03:20:28;7.10;99.90
53752;DHT22;41095;53.090;6.692;2023-04-25T03:22:54;7.10;99.90
53752;DHT22;41095;53.090;6.692;2023-04-25T03:25:20;7.10;99.90
53752;DHT22;41095;53.090;6.692;2023-04-25T03:27:45;7.00;99.90
53752;DHT22;41095;53.090;6.692;2023-04-25T03:30:11;7.10;99.90
53752;DHT22;41095;53.090;6.692;2023-04-25T03:32:37;7.00;99.90
53752;DHT22;41095;53.090;6.692;2023-04-25T03:35:03;7.00;99.90
53752;DHT22;41095;53.090;6.692;2023-04-25T03:37:29;7.00;99.90
53752;DHT22;41095;53.090;6.692;2023-04-25T03:39:55;7.00;99.90
53752;DHT22;41095;53.090;6.692;2023-04-25T03:42:20;7.00;99.90
53752;DHT22;41095;53.090;6.692;2023-04-25T03:44:48;7.00;99.90
53752;DHT22;41095;53.090;6.692;2023-04-25T03:47:14;7.00;99.90
53752;DHT22;41095;53.090;6.692;2023-04-25T03:49:41;7.00;99.90
53752;DHT22;41095;53.090;6.692;2023-04-25T03:52:07;6.90;99.90
53752;DHT22;41095;53.090;6.692;2023-04-25T03:54:33;6.80;99.90
53752;DHT22;41095;53.090;6.692;2023-04-25T03:56:59;6.80;99.90
53752;DHT22;41095;53.090;6.692;2023-04-25T03:59:24;6.70;99.90
53752;DHT22;41095;53.090;6.692;2023-04-25T04:01:51;6.70;99.90
53752;DHT22;41095;53.090;6.692;2023-04-25T04:04:17;6.60;99.90
53752;DHT22;41095;53.090;6.692;2023-04-25T04:06:44;6.60;99.90
53752;DHT22;41095;53.090;6.692;2023-04-25T04:09:09;6.50;99.90
53752;DHT22;41095;53.090;6.692;2023-04-25T04:11:37;6.50;99.90
53752;DHT22;41095;53.090;6.692;2023-04-25T04:14:05;6.40;99.90
53752;DHT22;41095;53.090;6.692;2023-04-25T04:16:31;6.40;99.90
53752;DHT22;41095;53.090;6.692;2023-04-25T04:18:57;6.30;99.90
53752;DHT22;41095;53.090;6.692;2023-04-25T04:21:22;6.20;99.90
53752;DHT22;41095;53.090;6.692;2023-04-25T04:23:48;6.60;99.90
53752;DHT22;41095;53.090;6.692;2023-04-25T04:26:14;6.20;99.90
53752;DHT22;41095;53.090;6.692;2023-04-25T04:28:42;6.10;99.90
53752;DHT22;41095;53.090;6.692;2023-04-25T04:31:10;6.10;99.90
53752;DHT22;41095;53.090;6.692;2023-04-25T04:33:36;6.10;99.90
53752;DHT22;41095;53.090;6.692;2023-04-25T04:36:03;6.10;99.90
53752;DHT22;41095;53.090;6.692;2023-04-25T04:38:29;6.00;99.90
53752;DHT22;41095;53.090;6.692;2023-04-25T04:40:54;6.00;99.90
53752;DHT22;41095;53.090;6.692;2023-04-25T04:43:21;5.90;99.90
53752;DHT22;41095;53.090;6.692;2023-04-25T04:45:48;6.00;99.90
53752;DHT22;41095;53.090;6.692;2023-04-25T04:48:16;5.90;99.90
53752;DHT22;41095;53.090;6.692;2023-04-25T04:50:43;5.90;99.90
53752;DHT22;41095;53.090;6.692;2023-04-25T04:53:10;5.90;99.90
53752;DHT22;41095;53.090;6.692;2023-04-25T04:55:37;5.90;99.90
53752;DHT22;41095;53.090;6.692;2023-04-25T04:58:03;6.00;99.90
53752;DHT22;41095;53.090;6.692;2023-04-25T05:00:28;5.80;99.90
53752;DHT22;41095;53.090;6.692;2023-04-25T05:02:58;5.80;99.90
53752;DHT22;41095;53.090;6.692;2023-04-25T05:05:23;5.80;99.90
53752;DHT22;41095;53.090;6.692;2023-04-25T05:07:49;5.80;99.90
53752;DHT22;41095;53.090;6.692;2023-04-25T05:10:15;5.90;99.90
53752;DHT22;41095;53.090;6.692;2023-04-25T05:12:40;5.90;99.90
53752;DHT22;41095;53.090;6.692;2023-04-25T05:15:06;6.00;99.90
53752;DHT22;41095;53.090;6.692;2023-04-25T05:17:32;6.10;99.90
53752;DHT22;41095;53.090;6.692;2023-04-25T05:19:58;6.20;99.90
53752;DHT22;41095;53.090;6.692;2023-04-25T05:22:24;6.20;99.90
53752;DHT22;41095;53.090;6.692;2023-04-25T05:24:49;6.30;99.90
53752;DHT22;41095;53.090;6.692;2023-04-25T05:27:17;6.30;99.90
53752;DHT22;41095;53.090;6.692;2023-04-25T05:29:44;6.40;99.90
53752;DHT22;41095;53.090;6.692;2023-04-25T05:32:09;6.30;99.90
53752;DHT22;41095;53.090;6.692;2023-04-25T05:34:35;6.10;99.90
53752;DHT22;41095;53.090;6.692;2023-04-25T05:37:01;5.90;99.90
53752;DHT22;41095;53.090;6.692;2023-04-25T05:39:27;5.90;99.90
53752;DHT22;41095;53.090;6.692;2023-04-25T05:41:53;5.90;99.90
53752;DHT22;41095;53.090;6.692;2023-04-25T05:44:19;5.90;99.90
53752;DHT22;41095;53.090;6.692;2023-04-25T05:46:44;5.90;99.90
53752;DHT22;41095;53.090;6.692;2023-04-25T05:49:10;5.90;99.90
53752;DHT22;41095;53.090;6.692;2023-04-25T05:51:36;5.90;99.90
53752;DHT22;41095;53.090;6.692;2023-04-25T05:54:02;5.90;99.90
53752;DHT22;41095;53.090;6.692;2023-04-25T05:56:27;5.90;99.90
53752;DHT22;41095;53.090;6.692;2023-04-25T05:58:53;6.00;99.90
53752;DHT22;41095;53.090;6.692;2023-04-25T06:01:19;6.00;99.90
53752;DHT22;41095;53.090;6.692;2023-04-25T06:03:44;6.00;99.90
53752;DHT22;41095;53.090;6.692;2023-04-25T06:06:11;6.10;99.90
53752;DHT22;41095;53.090;6.692;2023-04-25T06:08:37;6.20;99.90
53752;DHT22;41095;53.090;6.692;2023-04-25T06:11:04;6.30;99.90
53752;DHT22;41095;53.090;6.692;2023-04-25T06:13:30;6.40;99.90
53752;DHT22;41095;53.090;6.692;2023-04-25T06:15:55;6.50;99.90
53752;DHT22;41095;53.090;6.692;2023-04-25T06:18:21;6.70;99.90
53752;DHT22;41095;53.090;6.692;2023-04-25T06:20:47;6.80;99.90
53752;DHT22;41095;53.090;6.692;2023-04-25T06:23:12;7.10;99.90
53752;DHT22;41095;53.090;6.692;2023-04-25T06:25:38;7.10;99.90
53752;DHT22;41095;53.090;6.692;2023-04-25T06:28:04;7.10;99.90
53752;DHT22;41095;53.090;6.692;2023-04-25T06:30:30;7.00;99.90
53752;DHT22;41095;53.090;6.692;2023-04-25T06:32:55;7.00;99.90
53752;DHT22;41095;53.090;6.692;2023-04-25T06:35:21;7.00;99.90
53752;DHT22;41095;53.090;6.692;2023-04-25T06:37:47;7.10;99.90
53752;DHT22;41095;53.090;6.692;2023-04-25T06:40:12;7.20;99.90
53752;DHT22;41095;53.090;6.692;2023-04-25T06:42:38;7.30;99.90
53752;DHT22;41095;53.090;6.692;2023-04-25T06:45:04;7.40;99.90
53752;DHT22;41095;53.090;6.692;2023-04-25T06:47:30;7.60;99.90
53752;DHT22;41095;53.090;6.692;2023-04-25T06:49:56;7.90;99.90
53752;DHT22;41095;53.090;6.692;2023-04-25T06:52:21;8.30;99.90
53752;DHT22;41095;53.090;6.692;2023-04-25T06:54:47;8.60;99.90
53752;DHT22;41095;53.090;6.692;2023-04-25T06:57:13;9.00;99.90
53752;DHT22;41095;53.090;6.692;2023-04-25T06:59:38;9.80;99.90
53752;DHT22;41095;53.090;6.692;2023-04-25T07:02:04;11.00;99.90
53752;DHT22;41095;53.090;6.692;2023-04-25T07:04:31;12.10;99.90
53752;DHT22;41095;53.090;6.692;2023-04-25T07:06:57;12.90;99.90
53752;DHT22;41095;53.090;6.692;2023-04-25T07:09:22;12.70;99.90
53752;DHT22;41095;53.090;6.692;2023-04-25T07:11:48;12.10;99.90
53752;DHT22;41095;53.090;6.692;2023-04-25T07:14:14;11.40;99.90
53752;DHT22;41095;53.090;6.692;2023-04-25T07:16:40;10.70;99.90
53752;DHT22;41095;53.090;6.692;2023-04-25T07:19:06;10.00;99.90
53752;DHT22;41095;53.090;6.692;2023-04-25T07:21:31;9.50;99.90
53752;DHT22;41095;53.090;6.692;2023-04-25T07:23:58;9.00;99.90
53752;DHT22;41095;53.090;6.692;2023-04-25T07:26:24;8.90;99.90
53752;DHT22;41095;53.090;6.692;2023-04-25T07:28:51;9.50;99.90
53752;DHT22;41095;53.090;6.692;2023-04-25T07:31:17;10.90;99.90
53752;DHT22;41095;53.090;6.692;2023-04-25T07:33:46;11.50;99.90
53752;DHT22;41095;53.090;6.692;2023-04-25T07:36:12;12.20;99.90
53752;DHT22;41095;53.090;6.692;2023-04-25T07:38:39;12.20;99.20
53752;DHT22;41095;53.090;6.692;2023-04-25T07:41:05;12.00;99.90
53752;DHT22;41095;53.090;6.692;2023-04-25T07:43:30;11.20;99.90
53752;DHT22;41095;53.090;6.692;2023-04-25T07:45:56;10.80;99.90
53752;DHT22;41095;53.090;6.692;2023-04-25T07:48:22;10.30;99.90
53752;DHT22;41095;53.090;6.692;2023-04-25T07:50:48;10.20;99.90
53752;DHT22;41095;53.090;6.692;2023-04-25T07:53:14;9.90;99.90
53752;DHT22;41095;53.090;6.692;2023-04-25T07:55:40;9.80;99.90
53752;DHT22;41095;53.090;6.692;2023-04-25T07:58:07;9.90;99.90
53752;DHT22;41095;53.090;6.692;2023-04-25T08:00:32;10.00;99.90
53752;DHT22;41095;53.090;6.692;2023-04-25T08:02:58;10.30;99.50
53752;DHT22;41095;53.090;6.692;2023-04-25T08:05:23;10.30;99.30
53752;DHT22;41095;53.090;6.692;2023-04-25T08:07:49;10.20;99.30
53752;DHT22;41095;53.090;6.692;2023-04-25T08:10:15;10.10;99.90
53752;DHT22;41095;53.090;6.692;2023-04-25T08:12:41;10.10;99.90
53752;DHT22;41095;53.090;6.692;2023-04-25T08:15:07;9.90;99.90
53752;DHT22;41095;53.090;6.692;2023-04-25T08:17:33;9.60;99.90
53752;DHT22;41095;53.090;6.692;2023-04-25T08:19:59;9.40;99.70
53752;DHT22;41095;53.090;6.692;2023-04-25T08:22:24;9.80;99.90
53752;DHT22;41095;53.090;6.692;2023-04-25T08:24:50;10.20;99.90
53752;DHT22;41095;53.090;6.692;2023-04-25T08:27:20;10.90;99.90
53752;DHT22;41095;53.090;6.692;2023-04-25T08:29:46;11.60;99.90
53752;DHT22;41095;53.090;6.692;2023-04-25T08:32:12;12.00;96.60
53752;DHT22;41095;53.090;6.692;2023-04-25T08:34:38;12.10;99.90
53752;DHT22;41095;53.090;6.692;2023-04-25T08:37:07;12.30;99.90
53752;DHT22;41095;53.090;6.692;2023-04-25T08:39:33;11.30;96.90
53752;DHT22;41095;53.090;6.692;2023-04-25T08:42:00;10.40;98.60
53752;DHT22;41095;53.090;6.692;2023-04-25T08:44:26;10.20;99.90
53752;DHT22;41095;53.090;6.692;2023-04-25T08:46:52;10.10;99.90
53752;DHT22;41095;53.090;6.692;2023-04-25T08:49:18;10.20;99.90
53752;DHT22;41095;53.090;6.692;2023-04-25T08:51:46;10.20;99.90
53752;DHT22;41095;53.090;6.692;2023-04-25T08:54:13;10.20;99.90
53752;DHT22;41095;53.090;6.692;2023-04-25T08:56:41;10.60;99.90
53752;DHT22;41095;53.090;6.692;2023-04-25T08:59:10;10.90;99.90
53752;DHT22;41095;53.090;6.692;2023-04-25T09:01:36;11.50;99.90
53752;DHT22;41095;53.090;6.692;2023-04-25T09:04:01;12.00;97.90
53752;DHT22;41095;53.090;6.692;2023-04-25T09:06:29;12.10;99.90
53752;DHT22;41095;53.090;6.692;2023-04-25T09:09:06;11.70;98.90
53752;DHT22;41095;53.090;6.692;2023-04-25T09:11:32;12.50;98.60
53752;DHT22;41095;53.090;6.692;2023-04-25T09:14:14;12.30;96.40
53752;DHT22;41095;53.090;6.692;2023-04-25T09:21:54;11.50;99.10
53752;DHT22;41095;53.090;6.692;2023-04-25T09:24:41;12.10;98.00
53752;DHT22;41095;53.090;6.692;2023-04-25T09:27:10;12.90;93.70
53752;DHT22;41095;53.090;6.692;2023-04-25T09:29:38;13.50;96.40
53752;DHT22;41095;53.090;6.692;2023-04-25T09:32:21;14.20;98.60
53752;DHT22;41095;53.090;6.692;2023-04-25T09:34:53;14.90;91.80
53752;DHT22;41095;53.090;6.692;2023-04-25T09:37:26;15.80;96.50
53752;DHT22;41095;53.090;6.692;2023-04-25T09:39:57;15.60;91.20
53752;DHT22;41095;53.090;6.692;2023-04-25T09:42:28;15.80;96.00
53752;DHT22;41095;53.090;6.692;2023-04-25T09:44:57;15.30;93.70
53752;DHT22;41095;53.090;6.692;2023-04-25T09:47:24;15.80;98.30
53752;DHT22;41095;53.090;6.692;2023-04-25T09:49:51;15.30;95.60
53752;DHT22;41095;53.090;6.692;2023-04-25T09:52:21;13.90;95.80
53752;DHT22;41095;53.090;6.692;2023-04-25T09:54:48;13.10;93.50
53752;DHT22;41095;53.090;6.692;2023-04-25T09:57:20;11.70;96.90
53752;DHT22;41095;53.090;6.692;2023-04-25T09:59:48;11.10;99.90
53752;DHT22;41095;53.090;6.692;2023-04-25T10:02:19;10.40;98.70
53752;DHT22;41095;53.090;6.692;2023-04-25T10:04:48;10.20;99.90
53752;DHT22;41095;53.090;6.692;2023-04-25T10:07:14;10.10;99.50
53752;DHT22;41095;53.090;6.692;2023-04-25T10:09:40;10.20;98.30
53752;DHT22;41095;53.090;6.692;2023-04-25T10:12:08;10.60;99.90
53752;DHT22;41095;53.090;6.692;2023-04-25T10:14:34;11.10;99.00
53752;DHT22;41095;53.090;6.692;2023-04-25T10:17:00;11.20;99.90
53752;DHT22;41095;53.090;6.692;2023-04-25T10:19:27;10.90;96.20
53752;DHT22;41095;53.090;6.692;2023-04-25T10:22:06;11.30;98.10
53752;DHT22;41095;53.090;6.692;2023-04-25T10:24:32;12.30;93.90
53752;DHT22;41095;53.090;6.692;2023-04-25T10:26:58;13.20;93.20
53752;DHT22;41095;53.090;6.692;2023-04-25T10:29:25;13.20;91.50
53752;DHT22;41095;53.090;6.692;2023-04-25T10:31:51;13.70;93.00
53752;DHT22;41095;53.090;6.692;2023-04-25T10:34:18;13.90;94.90
53752;DHT22;41095;53.090;6.692;2023-04-25T10:36:50;14.50;91.40
53752;DHT22;41095;53.090;6.692;2023-04-25T10:39:24;14.00;92.90
53752;DHT22;41095;53.090;6.692;2023-04-25T10:41:55;13.40;92.70
53752;DHT22;41095;53.090;6.692;2023-04-25T10:44:21;12.60;94.10
53752;DHT22;41095;53.090;6.692;2023-04-25T10:46:47;11.80;96.70
53752;DHT22;41095;53.090;6.692;2023-04-25T10:49:48;11.30;95.00
53752;DHT22;41095;53.090;6.692;2023-04-25T10:52:16;10.90;94.80
53752;DHT22;41095;53.090;6.692;2023-04-25T10:54:52;10.80;97.00
53752;DHT22;41095;53.090;6.692;2023-04-25T11:02:58;10.70;98.00
53752;DHT22;41095;53.090;6.692;2023-04-25T11:05:35;11.30;98.80
53752;DHT22;41095;53.090;6.692;2023-04-25T11:08:01;11.40;97.00
53752;DHT22;41095;53.090;6.692;2023-04-25T11:10:30;11.20;97.00
53752;DHT22;41095;53.090;6.692;2023-04-25T11:12:57;10.50;96.50
53752;DHT22;41095;53.090;6.692;2023-04-25T11:15:23;10.00;96.30
53752;DHT22;41095;53.090;6.692;2023-04-25T11:17:51;10.20;98.40
53752;DHT22;41095;53.090;6.692;2023-04-25T11:20:17;10.20;98.10
53752;DHT22;41095;53.090;6.692;2023-04-25T11:22:44;10.20;95.60
53752;DHT22;41095;53.090;6.692;2023-04-25T11:25:12;10.10;97.30
53752;DHT22;41095;53.090;6.692;2023-04-25T11:27:54;10.30;96.40
53752;DHT22;41095;53.090;6.692;2023-04-25T11:30:23;10.10;95.80
53752;DHT22;41095;53.090;6.692;2023-04-25T11:32:49;10.00;97.70
53752;DHT22;41095;53.090;6.692;2023-04-25T11:35:16;10.10;97.20
53752;DHT22;41095;53.090;6.692;2023-04-25T11:37:44;10.30;95.90
53752;DHT22;41095;53.090;6.692;2023-04-25T11:40:11;10.20;94.50
53752;DHT22;41095;53.090;6.692;2023-04-25T11:42:43;10.40;96.50
53752;DHT22;41095;53.090;6.692;2023-04-25T11:45:10;10.70;95.10
53752;DHT22;41095;53.090;6.692;2023-04-25T11:47:36;10.80;94.80
53752;DHT22;41095;53.090;6.692;2023-04-25T11:50:06;10.90;95.10
53752;DHT22;41095;53.090;6.692;2023-04-25T11:52:45;11.20;94.40
53752;DHT22;41095;53.090;6.692;2023-04-25T11:55:16;11.40;94.40
53752;DHT22;41095;53.090;6.692;2023-04-25T11:57:43;11.60;95.20
53752;DHT22;41095;53.090;6.692;2023-04-25T12:00:14;11.40;94.10
53752;DHT22;41095;53.090;6.692;2023-04-25T12:02:44;11.20;94.30
53752;DHT22;41095;53.090;6.692;2023-04-25T12:05:11;11.30;94.80
53752;DHT22;41095;53.090;6.692;2023-04-25T12:07:37;11.30;94.20
53752;DHT22;41095;53.090;6.692;2023-04-25T12:10:11;11.40;94.40
53752;DHT22;41095;53.090;6.692;2023-04-25T12:12:38;11.60;94.00
53752;DHT22;41095;53.090;6.692;2023-04-25T12:17:45;11.60;92.60
53752;DHT22;41095;53.090;6.692;2023-04-25T12:20:19;11.60;94.30
53752;DHT22;41095;53.090;6.692;2023-04-25T12:22:51;11.70;95.40
53752;DHT22;41095;53.090;6.692;2023-04-25T12:25:45;12.00;96.00
53752;DHT22;41095;53.090;6.692;2023-04-25T12:28:23;12.10;93.50
53752;DHT22;41095;53.090;6.692;2023-04-25T12:31:15;12.10;93.50
53752;DHT22;41095;53.090;6.692;2023-04-25T12:33:41;11.80;92.80
53752;DHT22;41095;53.090;6.692;2023-04-25T12:36:09;11.60;95.10
53752;DHT22;41095;53.090;6.692;2023-04-25T12:38:41;11.30;94.60
53752;DHT22;41095;53.090;6.692;2023-04-25T12:41:07;11.20;94.50
53752;DHT22;41095;53.090;6.692;2023-04-25T12:43:33;11.00;95.70
53752;DHT22;41095;53.090;6.692;2023-04-25T12:45:59;11.10;95.80
53752;DHT22;41095;53.090;6.692;2023-04-25T12:48:25;10.80;94.60
53752;DHT22;41095;53.090;6.692;2023-04-25T12:50:51;10.80;96.00
53752;DHT22;41095;53.090;6.692;2023-04-25T12:53:21;10.80;94.20
53752;DHT22;41095;53.090;6.692;2023-04-25T12:55:47;10.70;94.30
53752;DHT22;41095;53.090;6.692;2023-04-25T12:58:18;10.80;95.10
53752;DHT22;41095;53.090;6.692;2023-04-25T13:00:45;11.00;94.60
53752;DHT22;41095;53.090;6.692;2023-04-25T13:03:11;11.00;95.40
53752;DHT22;41095;53.090;6.692;2023-04-25T13:05:38;11.10;94.30
53752;DHT22;41095;53.090;6.692;2023-04-25T13:08:04;10.90;94.40
53752;DHT22;41095;53.090;6.692;2023-04-25T13:10:30;10.90;95.60
53752;DHT22;41095;53.090;6.692;2023-04-25T13:12:56;11.10;96.10
53752;DHT22;41095;53.090;6.692;2023-04-25T13:15:22;11.10;95.50
53752;DHT22;41095;53.090;6.692;2023-04-25T13:17:48;11.40;95.40
53752;DHT22;41095;53.090;6.692;2023-04-25T13:20:14;11.60;95.60
53752;DHT22;41095;53.090;6.692;2023-04-25T13:22:42;11.70;94.20
53752;DHT22;41095;53.090;6.692;2023-04-25T13:25:08;11.70;91.70
53752;DHT22;41095;53.090;6.692;2023-04-25T13:27:35;11.50;93.30
53752;DHT22;41095;53.090;6.692;2023-04-25T13:30:03;11.10;93.20
53752;DHT22;41095;53.090;6.692;2023-04-25T13:32:36;11.00;93.00
53752;DHT22;41095;53.090;6.692;2023-04-25T13:35:03;11.00;94.40
53752;DHT22;41095;53.090;6.692;2023-04-25T13:37:30;11.10;94.70
53752;DHT22;41095;53.090;6.692;2023-04-25T13:39:59;10.90;95.80
53752;DHT22;41095;53.090;6.692;2023-04-25T13:42:25;10.60;96.20
53752;DHT22;41095;53.090;6.692;2023-04-25T13:44:51;10.50;96.80
53752;DHT22;41095;53.090;6.692;2023-04-25T13:47:17;10.40;97.20
53752;DHT22;41095;53.090;6.692;2023-04-25T13:49:43;10.30;97.30
53752;DHT22;41095;53.090;6.692;2023-04-25T13:52:08;10.50;97.40
53752;DHT22;41095;53.090;6.692;2023-04-25T13:54:34;10.90;96.90
53752;DHT22;41095;53.090;6.692;2023-04-25T13:57:00;11.00;96.20
53752;DHT22;41095;53.090;6.692;2023-04-25T13:59:27;11.20;94.40
53752;DHT22;41095;53.090;6.692;2023-04-25T14:01:53;11.50;95.60
53752;DHT22;41095;53.090;6.692;2023-04-25T14:04:18;11.50;93.70
53752;DHT22;41095;53.090;6.692;2023-04-25T14:06:44;11.30;94.20
53752;DHT22;41095;53.090;6.692;2023-04-25T14:09:11;10.90;92.90
53752;DHT22;41095;53.090;6.692;2023-04-25T14:11:38;10.80;94.60
53752;DHT22;41095;53.090;6.692;2023-04-25T14:14:04;10.60;93.00
53752;DHT22;41095;53.090;6.692;2023-04-25T14:16:31;10.70;94.20
53752;DHT22;41095;53.090;6.692;2023-04-25T14:18:59;10.60;94.50
53752;DHT22;41095;53.090;6.692;2023-04-25T14:21:26;10.60;95.30
53752;DHT22;41095;53.090;6.692;2023-04-25T14:23:52;10.60;95.10
53752;DHT22;41095;53.090;6.692;2023-04-25T14:26:18;10.50;94.80
53752;DHT22;41095;53.090;6.692;2023-04-25T14:28:44;10.50;95.10
53752;DHT22;41095;53.090;6.692;2023-04-25T14:31:16;10.30;95.00
53752;DHT22;41095;53.090;6.692;2023-04-25T14:33:42;10.20;94.40
53752;DHT22;41095;53.090;6.692;2023-04-25T14:36:09;10.10;95.60
53752;DHT22;41095;53.090;6.692;2023-04-25T14:38:34;10.00;94.30
53752;DHT22;41095;53.090;6.692;2023-04-25T14:41:00;10.00;96.00
53752;DHT22;41095;53.090;6.692;2023-04-25T14:43:26;10.00;96.10
53752;DHT22;41095;53.090;6.692;2023-04-25T14:45:52;9.80;96.90
53752;DHT22;41095;53.090;6.692;2023-04-25T14:48:17;9.80;99.30
53752;DHT22;41095;53.090;6.692;2023-04-25T14:50:45;10.00;99.20
53752;DHT22;41095;53.090;6.692;2023-04-25T14:53:11;10.30;97.90
53752;DHT22;41095;53.090;6.692;2023-04-25T14:55:37;10.40;97.50
53752;DHT22;41095;53.090;6.692;2023-04-25T14:58:03;10.60;97.20
53752;DHT22;41095;53.090;6.692;2023-04-25T15:00:29;10.90;96.40
53752;DHT22;41095;53.090;6.692;2023-04-25T15:02:57;11.00;94.70
53752;DHT22;41095;53.090;6.692;2023-04-25T15:05:23;11.20;95.10
53752;DHT22;41095;53.090;6.692;2023-04-25T15:07:49;11.30;95.00
53752;DHT22;41095;53.090;6.692;2023-04-25T15:10:16;11.40;95.10
53752;DHT22;41095;53.090;6.692;2023-04-25T15:12:42;11.00;94.50
53752;DHT22;41095;53.090;6.692;2023-04-25T15:15:10;10.70;96.00
53752;DHT22;41095;53.090;6.692;2023-04-25T15:17:42;10.50;96.10
53752;DHT22;41095;53.090;6.692;2023-04-25T15:20:09;10.20;95.80
53752;DHT22;41095;53.090;6.692;2023-04-25T15:22:40;10.20;97.60
53752;DHT22;41095;53.090;6.692;2023-04-25T15:25:07;10.10;97.20
53752;DHT22;41095;53.090;6.692;2023-04-25T15:27:34;10.20;97.50
53752;DHT22;41095;53.090;6.692;2023-04-25T15:30:04;10.10;97.30
53752;DHT22;41095;53.090;6.692;2023-04-25T15:32:31;10.10;97.80
53752;DHT22;41095;53.090;6.692;2023-04-25T15:34:56;10.30;97.50
53752;DHT22;41095;53.090;6.692;2023-04-25T15:37:22;10.30;96.30
53752;DHT22;41095;53.090;6.692;2023-04-25T15:39:48;10.00;94.00
53752;DHT22;41095;53.090;6.692;2023-04-25T15:42:25;9.80;96.20
53752;DHT22;41095;53.090;6.692;2023-04-25T15:44:51;9.60;94.70
53752;DHT22;41095;53.090;6.692;2023-04-25T15:47:16;9.60;95.70
53752;DHT22;41095;53.090;6.692;2023-04-25T15:49:42;9.40;94.50